createdAt,value
2019-05-18T00:02:29.812Z,76.00
2019-05-18T00:05:00.122Z,73.67
2019-05-18T00:07:30.448Z,76.77
2019-05-18T00:10:00.647Z,77.15
2019-05-18T00:12:30.989Z,71.65
2019-05-18T00:15:04.044Z,72.40
2019-05-18T00:17:34.504Z,74.50
2019-05-18T00:20:04.931Z,72.55
2019-05-18T00:22:35.216Z,73.25
2019-05-18T00:25:05.667Z,76.55
2019-05-18T00:27:36.011Z,68.90
2019-05-18T00:30:06.528Z,72.45
2019-05-18T00:32:37.454Z,70.08
2019-05-18T00:35:08.083Z,68.55
2019-05-18T00:37:38.387Z,73.10
2019-05-18T00:40:08.732Z,70.55
2019-05-18T00:42:38.958Z,75.10
2019-05-18T00:45:09.275Z,68.87
2019-05-18T00:47:41.983Z,69.82
2019-05-18T00:50:11.725Z,67.55
2019-05-18T00:52:41.985Z,73.95
2019-05-18T00:55:13.148Z,67.67
2019-05-18T00:57:43.377Z,72.82
2019-05-18T01:00:13.769Z,66.22
2019-05-18T01:02:43.993Z,70.00
2019-05-18T01:05:14.240Z,67.47
2019-05-18T01:07:44.578Z,66.90
2019-05-18T01:10:14.821Z,66.77
2019-05-18T01:12:45.174Z,66.75
2019-05-18T01:15:15.438Z,64.90
2019-05-18T01:17:56.856Z,67.37
2019-05-18T01:20:17.635Z,65.45
2019-05-18T01:22:47.901Z,63.48
2019-05-18T01:25:18.183Z,65.90
2019-05-18T01:27:48.345Z,67.05
2019-05-18T01:30:18.632Z,65.97
2019-05-18T01:32:48.945Z,65.25
2019-05-18T01:35:19.182Z,62.27
2019-05-18T01:37:49.492Z,65.57
2019-05-18T01:40:21.224Z,63.20
2019-05-18T01:42:51.563Z,63.20
2019-05-18T01:45:21.819Z,61.37
2019-05-18T01:47:52.048Z,61.45
2019-05-18T01:50:22.302Z,59.75
2019-05-18T01:52:52.651Z,58.20
2019-05-18T02:10:12.858Z,58.85
2019-05-18T02:12:43.255Z,58.55
2019-05-18T02:15:13.520Z,58.73
2019-05-18T02:17:43.743Z,57.20
2019-05-18T02:20:13.990Z,60.33
2019-05-18T02:22:44.342Z,55.43
2019-05-18T02:25:14.565Z,54.33
2019-05-18T02:27:44.923Z,53.68
2019-05-18T02:30:17.565Z,54.77
2019-05-18T02:32:47.207Z,58.20
2019-05-18T02:35:17.532Z,54.20
2019-05-18T02:37:47.808Z,53.45
2019-05-18T02:40:18.073Z,57.20
2019-05-18T02:42:48.561Z,52.35
2019-05-18T02:45:18.919Z,50.15
2019-05-18T02:47:49.203Z,51.35
2019-05-18T02:50:19.384Z,52.55
2019-05-18T02:52:49.653Z,52.65
2019-05-18T02:55:20.013Z,51.28
2019-05-18T02:57:50.340Z,54.25
2019-05-18T03:00:20.612Z,52.83
2019-05-18T03:02:50.780Z,47.70
2019-05-18T03:05:21.226Z,50.28
2019-05-18T03:07:52.605Z,48.20
2019-05-18T03:10:22.870Z,51.48
2019-05-18T03:12:53.115Z,48.23
2019-05-18T03:15:23.407Z,47.98
2019-05-18T03:17:53.663Z,47.85
2019-05-18T03:20:24.144Z,52.35
2019-05-18T03:22:55.340Z,51.00
2019-05-18T03:25:25.614Z,47.08
2019-05-18T03:27:55.915Z,43.73
2019-05-18T03:30:26.165Z,48.70
2019-05-18T03:32:56.389Z,47.08
2019-05-18T03:35:26.645Z,43.42
2019-05-18T03:37:56.907Z,47.10
2019-05-18T03:40:27.261Z,46.50
2019-05-18T03:42:57.468Z,45.35
2019-05-18T03:45:27.793Z,45.78
2019-05-18T03:47:58.081Z,43.95
2019-05-18T03:50:28.296Z,44.58
2019-05-18T03:52:58.552Z,43.60
2019-05-18T03:55:28.835Z,43.00
2019-05-18T03:57:59.430Z,44.13
2019-05-18T04:00:29.699Z,43.40
2019-05-18T04:03:00.178Z,40.50
2019-05-18T04:05:30.585Z,43.40
2019-05-18T04:08:01.001Z,42.30
2019-05-18T04:10:31.323Z,40.92
2019-05-18T04:13:01.622Z,40.78
2019-05-18T04:15:31.872Z,42.58
2019-05-18T04:18:02.180Z,39.78
2019-05-18T04:20:32.563Z,40.28
2019-05-18T04:23:02.678Z,40.23
2019-05-18T04:25:33.909Z,39.63
2019-05-18T04:28:04.095Z,41.18
2019-05-18T04:30:34.376Z,38.60
2019-05-18T04:33:04.602Z,36.83
2019-05-18T04:35:34.852Z,38.50
2019-05-18T04:38:05.257Z,42.78
2019-05-18T04:40:35.460Z,39.55
2019-05-18T04:43:05.924Z,38.75
2019-05-18T04:45:36.152Z,37.93
2019-05-18T04:48:06.375Z,37.98
2019-05-18T04:50:36.654Z,37.00
2019-05-18T04:53:06.890Z,38.48
2019-05-18T04:55:37.284Z,36.60
2019-05-18T04:58:07.555Z,39.08
2019-05-18T05:00:37.813Z,39.90
2019-05-18T05:03:08.059Z,37.67
2019-05-18T05:05:36.688Z,38.17
2019-05-18T05:08:07.007Z,37.03
2019-05-18T05:10:37.226Z,38.63
2019-05-18T05:13:09.204Z,39.30
2019-05-18T05:15:39.508Z,40.50
2019-05-18T05:18:10.447Z,48.15
2019-05-18T05:20:40.788Z,41.95
2019-05-18T05:23:11.081Z,45.75
2019-05-18T05:25:41.407Z,45.05
2019-05-18T05:28:11.732Z,46.15
2019-05-18T05:30:42.159Z,45.28
2019-05-18T05:33:12.451Z,42.80
2019-05-18T05:35:42.702Z,42.98
2019-05-18T05:38:12.992Z,43.55
2019-05-18T05:40:43.312Z,39.85
2019-05-18T05:43:13.568Z,43.52
2019-05-18T05:45:43.887Z,38.50
2019-05-18T05:48:14.244Z,40.90
2019-05-18T05:50:44.406Z,37.90
2019-05-18T05:53:14.572Z,40.90
2019-05-18T05:55:44.812Z,39.80
2019-05-18T05:58:15.111Z,36.15
2019-05-18T06:00:45.411Z,38.30
2019-05-18T06:03:15.969Z,41.23
2019-05-18T06:05:46.469Z,38.02
2019-05-18T06:08:16.808Z,38.23
2019-05-18T06:10:47.036Z,43.87
2019-05-18T06:13:17.396Z,38.58
2019-05-18T06:15:47.646Z,69.67
2019-05-18T06:18:18.000Z,62.00
2019-05-18T06:20:51.358Z,55.70
2019-05-18T06:23:20.352Z,69.37
2019-05-18T06:25:50.714Z,47.05
2019-05-18T06:28:21.029Z,29.25
2019-05-18T06:30:51.708Z,23.18
2019-05-18T06:33:21.882Z,25.52
2019-05-18T06:35:52.098Z,24.47
2019-05-18T06:38:22.495Z,25.97
2019-05-18T06:40:53.033Z,24.65
2019-05-18T06:43:23.375Z,21.65
2019-05-18T06:45:53.777Z,25.08
2019-05-18T06:48:24.081Z,25.30
2019-05-18T06:51:06.669Z,27.15
2019-05-18T06:53:27.299Z,40.52
2019-05-18T06:55:57.458Z,39.20
2019-05-18T06:58:28.005Z,45.67
2019-05-18T07:00:58.351Z,50.20
2019-05-18T07:03:28.802Z,56.18
2019-05-18T07:05:58.964Z,48.63
2019-05-18T07:08:29.499Z,40.73
2019-05-18T07:10:59.709Z,44.70
2019-05-18T07:13:30.598Z,43.15
2019-05-18T07:16:01.075Z,38.80
2019-05-18T07:18:31.572Z,43.78
2019-05-18T07:21:02.204Z,45.92
2019-05-18T07:23:32.551Z,37.50
2019-05-18T07:26:02.855Z,34.35
2019-05-18T07:28:33.218Z,28.65
2019-05-18T07:31:03.488Z,38.55
2019-05-18T07:33:34.972Z,46.33
2019-05-18T07:36:05.236Z,38.73
2019-05-18T07:38:35.755Z,35.60
2019-05-18T07:41:07.184Z,43.70
2019-05-18T07:43:37.510Z,38.33
2019-05-18T07:46:08.868Z,39.73
2019-05-18T07:48:39.213Z,39.48
2019-05-18T07:51:09.457Z,39.42
2019-05-18T07:53:39.918Z,35.73
2019-05-18T07:56:10.211Z,38.67
2019-05-18T07:58:41.552Z,39.23
2019-05-18T08:01:12.020Z,38.00
2019-05-18T08:03:42.439Z,37.10
2019-05-18T08:06:12.662Z,38.80
2019-05-18T08:08:42.903Z,32.35
2019-05-18T08:11:13.208Z,35.65
2019-05-18T08:13:43.412Z,33.80
2019-05-18T08:16:13.755Z,33.88
2019-05-18T08:18:43.998Z,37.13
2019-05-18T08:21:14.284Z,35.98
2019-05-18T08:23:44.604Z,33.70
2019-05-18T08:26:14.963Z,35.92
2019-05-18T08:28:45.146Z,32.75
2019-05-18T08:31:15.582Z,32.45
2019-05-18T08:33:45.896Z,32.90
2019-05-18T08:36:16.319Z,31.35
2019-05-18T08:38:46.675Z,30.15
2019-05-18T08:41:18.061Z,31.10
2019-05-18T08:43:48.601Z,32.30
2019-05-18T08:46:18.975Z,28.80
2019-05-18T08:48:49.230Z,30.48
2019-05-18T08:51:19.620Z,30.90
2019-05-18T08:53:49.958Z,30.65
2019-05-18T08:56:20.211Z,30.12
2019-05-18T08:58:50.559Z,30.72
2019-05-18T09:01:20.817Z,29.12
2019-05-18T09:03:51.224Z,27.32
2019-05-18T09:06:21.496Z,25.92
2019-05-18T09:08:51.755Z,26.52
2019-05-18T09:11:20.319Z,28.40
2019-05-18T09:13:49.095Z,27.35
2019-05-18T09:16:20.419Z,28.15
2019-05-18T09:18:50.671Z,27.60
2019-05-18T09:21:21.023Z,26.68
2019-05-18T09:23:51.527Z,26.15
2019-05-18T09:26:21.941Z,24.90
2019-05-18T09:28:52.207Z,25.00
2019-05-18T09:31:22.522Z,24.75
2019-05-18T09:33:52.782Z,24.70
2019-05-18T09:36:22.997Z,24.87
2019-05-18T09:38:53.259Z,24.63
2019-05-18T09:41:24.023Z,23.90
2019-05-18T09:43:54.421Z,23.62
2019-05-18T09:46:24.834Z,24.77
2019-05-18T09:48:55.341Z,25.80
2019-05-18T09:51:25.513Z,24.47
2019-05-18T09:53:55.920Z,24.18
2019-05-18T09:56:26.160Z,22.55
2019-05-18T09:58:56.602Z,22.77
2019-05-18T10:01:27.029Z,22.77
2019-05-18T10:03:57.449Z,23.73
2019-05-18T10:06:27.704Z,22.10
2019-05-18T10:08:58.118Z,22.60
2019-05-18T10:11:28.457Z,22.20
2019-05-18T10:13:58.735Z,21.20
2019-05-18T10:16:29.095Z,22.55
2019-05-18T10:18:59.532Z,21.30
2019-05-18T10:21:29.918Z,22.20
2019-05-18T10:24:00.120Z,18.65
2019-05-18T10:26:30.480Z,22.13
2019-05-18T10:29:00.751Z,20.32
2019-05-18T10:31:31.168Z,20.62
2019-05-18T10:34:01.449Z,20.48
2019-05-18T10:36:31.790Z,20.55
2019-05-18T10:39:02.168Z,21.55
2019-05-18T10:41:32.904Z,19.67
2019-05-18T10:44:03.569Z,19.62
2019-05-18T10:46:33.819Z,19.70
2019-05-18T10:49:05.436Z,20.10
2019-05-18T10:51:35.728Z,19.67
2019-05-18T10:54:06.080Z,20.72
2019-05-18T10:56:36.922Z,20.50
2019-05-18T10:59:07.210Z,19.90
2019-05-18T11:01:37.484Z,18.65
2019-05-18T11:04:07.884Z,17.50
2019-05-18T11:06:39.140Z,18.42
2019-05-18T11:09:09.601Z,18.32
2019-05-18T11:11:39.948Z,18.32
2019-05-18T11:14:10.273Z,19.00
2019-05-18T11:16:40.541Z,18.27
2019-05-18T11:19:10.848Z,17.23
2019-05-18T11:21:41.103Z,16.95
2019-05-18T11:24:11.483Z,17.05
2019-05-18T11:26:41.753Z,16.62
2019-05-18T11:29:12.242Z,17.67
2019-05-18T11:31:42.636Z,18.05
2019-05-18T11:34:13.023Z,15.78
2019-05-18T11:36:43.277Z,17.57
2019-05-18T11:39:13.570Z,18.12
2019-05-18T11:41:43.964Z,15.35
2019-05-18T11:44:14.137Z,18.15
2019-05-18T11:46:44.497Z,17.02
2019-05-18T11:49:14.961Z,16.73
2019-05-18T11:51:45.322Z,15.63
2019-05-18T11:54:15.677Z,16.52
2019-05-18T11:56:46.012Z,17.07
2019-05-18T11:59:16.188Z,17.45
2019-05-18T12:01:46.611Z,15.63
2019-05-18T12:04:16.973Z,16.95
2019-05-18T12:06:47.347Z,17.05
2019-05-18T12:09:17.824Z,17.50
2019-05-18T12:11:48.066Z,16.80
2019-05-18T12:14:19.596Z,14.65
2019-05-18T12:16:49.919Z,15.70
2019-05-18T12:19:20.140Z,16.07
2019-05-18T12:21:51.345Z,17.48
2019-05-18T12:24:21.700Z,14.40
2019-05-18T12:26:52.080Z,15.55
2019-05-18T12:29:22.421Z,16.35
2019-05-18T12:31:52.772Z,15.20
2019-05-18T12:34:23.195Z,15.40
2019-05-18T12:36:53.666Z,15.63
2019-05-18T12:39:24.126Z,15.55
2019-05-18T12:41:54.551Z,16.60
2019-05-18T12:44:24.899Z,15.58
2019-05-18T12:46:55.118Z,13.95
2019-05-18T12:49:25.348Z,15.48
2019-05-18T12:51:55.758Z,15.35
2019-05-18T12:54:30.900Z,15.35
2019-05-18T12:56:58.651Z,15.10
2019-05-18T12:59:28.893Z,14.38
2019-05-18T13:01:59.075Z,16.30
2019-05-18T13:04:29.470Z,15.32
2019-05-18T13:06:59.865Z,15.03
2019-05-18T13:09:30.248Z,14.00
2019-05-18T13:12:00.503Z,14.63
2019-05-18T13:14:30.899Z,14.78
2019-05-18T13:17:01.393Z,14.73
2019-05-18T13:19:31.816Z,14.63
2019-05-18T13:22:02.082Z,14.58
2019-05-18T13:24:44.285Z,15.20
2019-05-18T13:27:04.322Z,15.08
2019-05-18T13:29:34.614Z,14.95
2019-05-18T13:32:04.817Z,16.15
2019-05-18T13:34:35.251Z,14.98
2019-05-18T13:37:05.436Z,14.28
2019-05-18T13:39:35.778Z,16.23
2019-05-18T13:42:06.236Z,13.95
2019-05-18T13:44:38.173Z,15.13
2019-05-18T13:47:08.500Z,19.05
2019-05-18T13:49:38.816Z,15.78
2019-05-18T13:52:09.152Z,17.07
2019-05-18T13:54:39.399Z,18.23
2019-05-18T13:57:09.613Z,15.98
2019-05-18T13:59:39.898Z,16.23
2019-05-18T14:02:10.331Z,20.10
2019-05-18T14:04:40.723Z,19.12
2019-05-18T14:07:10.943Z,20.40
2019-05-18T14:09:41.297Z,18.02
2019-05-18T14:12:11.794Z,16.35
2019-05-18T14:14:41.987Z,18.12
2019-05-18T14:17:12.351Z,15.58
2019-05-18T14:19:42.707Z,17.70
2019-05-18T14:22:13.224Z,16.55
2019-05-18T14:24:43.498Z,16.50
2019-05-18T14:27:13.705Z,15.13
2019-05-18T14:29:43.885Z,15.63
2019-05-18T14:32:14.214Z,17.35
2019-05-18T14:34:44.720Z,15.08
2019-05-18T14:37:15.033Z,16.70
2019-05-18T14:39:45.180Z,17.17
2019-05-18T14:42:15.606Z,17.98
2019-05-18T14:44:45.842Z,16.15
2019-05-18T14:47:16.128Z,15.05
2019-05-18T14:49:46.589Z,16.50
2019-05-18T14:52:16.908Z,14.93
2019-05-18T14:54:47.316Z,15.88
2019-05-18T14:57:17.665Z,15.90
2019-05-18T14:59:47.880Z,15.32
2019-05-18T15:02:18.156Z,15.80
2019-05-18T15:04:48.418Z,16.45
2019-05-18T15:07:18.747Z,13.65
2019-05-18T15:09:48.964Z,16.80
2019-05-18T15:12:19.392Z,14.85
2019-05-18T15:14:49.663Z,15.50
2019-05-18T15:17:20.033Z,14.95
2019-05-18T15:19:50.380Z,15.43
2019-05-18T15:22:20.643Z,16.40
2019-05-18T15:24:50.943Z,16.50
2019-05-18T15:27:21.214Z,14.55
2019-05-18T15:29:51.461Z,17.40
2019-05-18T15:32:21.767Z,15.90
2019-05-18T15:34:51.990Z,15.28
2019-05-18T15:37:22.209Z,15.75
2019-05-18T15:39:52.527Z,16.10
2019-05-18T15:42:22.812Z,15.05
2019-05-18T15:44:53.070Z,15.43
2019-05-18T15:47:23.399Z,14.40
2019-05-18T15:49:54.631Z,16.35
2019-05-18T15:52:25.080Z,16.02
2019-05-18T15:54:55.349Z,16.00
2019-05-18T15:57:25.521Z,15.05
2019-05-18T15:59:55.831Z,14.43
2019-05-18T16:02:26.222Z,14.45
2019-05-18T16:04:56.579Z,15.23
2019-05-18T16:07:26.974Z,15.18
2019-05-18T16:09:57.443Z,14.10
2019-05-18T16:12:27.787Z,13.90
2019-05-18T16:14:58.178Z,14.68
2019-05-18T16:17:38.818Z,14.83
2019-05-18T16:20:00.737Z,14.83
2019-05-18T16:22:30.917Z,14.63
2019-05-18T16:25:01.185Z,14.93
2019-05-18T16:27:31.480Z,15.23
2019-05-18T16:30:01.882Z,14.45
2019-05-18T16:32:32.239Z,15.15
2019-05-18T16:35:02.556Z,16.02
2019-05-18T16:37:34.120Z,14.55
2019-05-18T16:40:04.518Z,14.83
2019-05-18T16:42:34.768Z,14.03
2019-05-18T16:45:05.308Z,14.90
2019-05-18T16:47:35.655Z,15.20
2019-05-18T16:50:07.064Z,13.98
2019-05-18T16:52:37.447Z,14.90
2019-05-18T16:55:08.696Z,15.05
2019-05-18T16:57:38.956Z,16.40
2019-05-18T17:00:10.758Z,16.00
2019-05-18T17:02:41.045Z,17.27
2019-05-18T17:05:11.254Z,15.68
2019-05-18T17:07:41.451Z,16.02
2019-05-18T17:10:11.913Z,17.15
2019-05-18T17:12:42.071Z,17.75
2019-05-18T17:15:12.389Z,15.95
2019-05-18T17:17:42.623Z,15.60
2019-05-18T17:20:12.860Z,15.90
2019-05-18T17:22:43.189Z,16.57
2019-05-18T17:25:13.447Z,16.05
2019-05-18T17:27:43.737Z,15.43
2019-05-18T17:30:14.022Z,16.67
2019-05-18T17:32:44.274Z,16.27
2019-05-18T17:35:15.160Z,17.02
2019-05-18T17:37:45.400Z,16.10
2019-05-18T17:40:16.316Z,17.40
2019-05-18T17:42:46.688Z,18.80
2019-05-18T17:45:16.852Z,16.05
2019-05-18T17:47:47.280Z,14.95
2019-05-18T17:50:17.632Z,16.75
2019-05-18T17:52:47.924Z,23.55
2019-05-18T17:55:18.072Z,15.98
2019-05-18T17:57:48.401Z,16.90
2019-05-18T18:00:18.690Z,16.55
2019-05-18T18:02:49.147Z,14.25
2019-05-18T18:05:19.510Z,15.83
2019-05-18T18:07:49.964Z,16.00
2019-05-18T18:10:20.695Z,17.15
2019-05-18T18:12:51.019Z,16.30
2019-05-18T18:15:21.376Z,14.98
2019-05-18T18:17:51.764Z,15.45
2019-05-18T18:20:22.128Z,19.02
2019-05-18T18:22:52.414Z,15.70
2019-05-18T18:25:22.721Z,15.88
2019-05-18T18:27:52.847Z,15.53
2019-05-18T18:30:23.014Z,15.45
2019-05-18T18:32:53.332Z,16.65
2019-05-18T18:35:23.590Z,14.07
2019-05-18T18:37:53.882Z,16.17
2019-05-18T18:40:24.198Z,16.90
2019-05-18T18:42:54.593Z,22.17
2019-05-18T18:45:24.863Z,17.57
2019-05-18T18:47:55.183Z,34.33
2019-05-18T18:50:25.701Z,28.42
2019-05-18T18:52:56.517Z,27.60
2019-05-18T18:55:26.954Z,29.85
2019-05-18T18:57:57.402Z,30.27
2019-05-18T19:00:27.601Z,26.97
2019-05-18T19:02:57.952Z,26.93
2019-05-18T19:05:28.294Z,28.25
2019-05-18T19:07:58.697Z,27.07
2019-05-18T19:10:29.011Z,25.12
2019-05-18T19:12:59.214Z,27.27
2019-05-18T19:15:29.483Z,27.40
2019-05-18T19:17:59.641Z,26.60
2019-05-18T19:20:29.885Z,27.60
2019-05-18T19:23:00.092Z,25.48
2019-05-18T19:25:30.353Z,26.02
2019-05-18T19:28:00.711Z,26.12
2019-05-18T19:30:31.047Z,27.27
2019-05-18T19:33:01.197Z,29.50
2019-05-18T19:35:31.533Z,29.20
2019-05-18T19:38:01.848Z,26.60
2019-05-18T19:40:32.257Z,28.50
2019-05-18T19:43:02.547Z,27.62
2019-05-18T19:45:33.022Z,28.02
2019-05-18T19:48:03.544Z,30.10
2019-05-18T19:50:33.945Z,32.90
2019-05-18T19:53:05.482Z,28.83
2019-05-18T19:55:35.858Z,30.88
2019-05-18T19:58:08.863Z,32.13
2019-05-18T20:00:39.209Z,33.45
2019-05-18T20:03:09.565Z,31.48
2019-05-18T20:05:39.787Z,30.70
2019-05-18T20:08:10.216Z,36.13
2019-05-18T20:10:40.609Z,34.63
2019-05-18T20:13:10.816Z,38.45
2019-05-18T20:15:40.997Z,41.15
2019-05-18T20:18:11.155Z,38.15
2019-05-18T20:20:41.627Z,39.60
2019-05-18T20:23:12.112Z,39.75
2019-05-18T20:25:42.370Z,39.18
2019-05-18T20:28:23.310Z,41.58
2019-05-18T20:30:44.707Z,37.70
2019-05-18T20:33:15.216Z,39.92
2019-05-18T20:35:45.772Z,41.13
2019-05-18T20:38:16.622Z,37.50
2019-05-18T20:40:46.862Z,39.88
2019-05-18T20:43:17.269Z,39.92
2019-05-18T20:45:47.841Z,40.08
2019-05-18T20:48:18.196Z,39.13
2019-05-18T20:50:49.424Z,40.20
2019-05-18T20:53:19.790Z,40.10
2019-05-18T20:55:50.151Z,43.13
2019-05-18T20:58:20.425Z,54.42
2019-05-18T21:00:50.759Z,52.80
2019-05-18T21:03:21.019Z,53.92
2019-05-18T21:05:51.380Z,52.40
2019-05-18T21:08:21.595Z,49.63
2019-05-18T21:10:52.051Z,51.23
2019-05-18T21:13:22.638Z,46.33
2019-05-18T21:15:53.725Z,51.53
2019-05-18T21:18:25.442Z,50.25
2019-05-18T21:20:55.782Z,53.75
2019-05-18T21:23:26.095Z,54.75
2019-05-18T21:25:57.522Z,56.28
2019-05-18T21:28:27.834Z,50.98
2019-05-18T21:30:58.046Z,53.73
2019-05-18T21:33:28.321Z,52.85
2019-05-18T21:35:58.475Z,57.40
2019-05-18T21:38:28.887Z,75.92
2019-05-18T21:40:59.051Z,83.12
2019-05-18T21:43:29.393Z,101.78
2019-05-18T21:46:00.443Z,68.15
2019-05-18T21:48:30.732Z,65.78
2019-05-18T21:51:01.187Z,70.72
2019-05-18T21:53:31.471Z,68.45
2019-05-18T21:56:01.700Z,72.82
2019-05-18T21:58:31.839Z,68.97
2019-05-18T22:01:02.254Z,72.60
2019-05-18T22:03:32.582Z,72.00
2019-05-18T22:06:03.786Z,72.17
2019-05-18T22:08:34.130Z,70.57
2019-05-18T22:11:04.655Z,69.62
2019-05-18T22:13:37.236Z,72.27
2019-05-18T22:16:07.635Z,71.90
2019-05-18T22:18:37.929Z,74.25
2019-05-18T22:21:08.187Z,71.62
2019-05-18T22:23:39.458Z,72.00
2019-05-18T22:26:09.789Z,75.32
2019-05-18T22:28:40.019Z,71.95
2019-05-18T22:31:10.304Z,72.37
2019-05-18T22:33:40.666Z,78.67
2019-05-18T22:36:10.952Z,75.65
2019-05-18T22:38:41.243Z,73.97
2019-05-18T22:41:11.473Z,71.65
2019-05-18T22:43:41.719Z,75.20
2019-05-18T22:46:12.047Z,75.15
2019-05-18T22:48:42.379Z,71.40
2019-05-18T22:51:12.514Z,75.50
2019-05-18T22:53:42.879Z,77.08
2019-05-18T22:56:13.160Z,73.15
2019-05-18T22:58:43.493Z,78.25
2019-05-18T23:01:13.810Z,76.72
2019-05-18T23:03:44.027Z,72.80
2019-05-18T23:06:14.354Z,70.05
2019-05-18T23:08:44.613Z,74.10
2019-05-18T23:11:14.962Z,75.75
2019-05-18T23:13:45.347Z,75.28
2019-05-18T23:16:15.539Z,75.28
2019-05-18T23:18:56.324Z,72.90
2019-05-18T23:21:17.624Z,77.53
2019-05-18T23:23:47.948Z,71.28
2019-05-18T23:26:18.371Z,72.45
2019-05-18T23:28:48.484Z,71.07
2019-05-18T23:31:18.706Z,78.22
2019-05-18T23:33:48.970Z,74.22
2019-05-18T23:36:19.211Z,72.45
2019-05-18T23:38:49.440Z,73.62
2019-05-18T23:41:19.758Z,74.17
2019-05-18T23:43:49.944Z,73.42
2019-05-18T23:46:20.208Z,71.62
2019-05-18T23:48:50.423Z,71.00
2019-05-18T23:51:20.645Z,73.07
2019-05-18T23:53:53.677Z,73.40
2019-05-18T23:56:22.886Z,73.28
2019-05-18T23:58:53.149Z,75.57
